< < Back
Terminal Aerodrome Forecast


Current Version              Previous Versions:   1  2  3  4  5  6  7  8  9  

Terminal Aerodrome Forecast

975
FTUS44 KBMX 030158 AAA
TAFBHM
TAF AMD
KBHM 030158Z 0302/0324 23008KT P6SM VCSH SCT007 BKN012
     FM030900 32003KT 6SM BR BKN007
     FM031500 31010KT P6SM SCT015 BKN050=

Latest METAR

964
SAUS70 KWBC 031600 RRE
MTRBHM
METAR KBHM 031553Z 33007KT 10SM SCT024 SCT065 21/13 A2999 RMK AO2 SLP149
T02060133


USA.gov is the U.S. government's official web portal to all federal, state and local government web resources and services.